Time;durP1;ratioP1;P1;durP2;ratioP2;P2;SDS_P1;SDS_P2;PMS_P1;PMS_P2;Temp;Humidity;BMP_temperature;BMP_pressure;BME280_temperature;BME280_humidity;BME280_pressure;Samples;Min_cycle;Max_cycle;Signal;HPM_P1;HPM_P2
2022/12/29 00:00:00;;;;;;;0.60;0.40;;;9.90;99.90;;;;;;7284779;32;20115;-60
2022/12/29 00:04:03;;;;;;;1.90;0.70;;;9.90;99.90;;;;;;7291972;32;20217;-60
2022/12/29 00:08:04;;;;;;;0.95;0.50;;;9.90;99.90;;;;;;7294245;32;20120;-62
2022/12/29 00:12:06;;;;;;;0.62;0.40;;;9.90;99.90;;;;;;7295428;32;20571;-60
2022/12/29 00:16:08;;;;;;;0.85;0.40;;;9.90;99.90;;;;;;7286915;32;20299;-60
2022/12/29 00:44:04;;;;;;;0.82;0.70;;;9.80;99.90;;;;;;7289442;32;20130;-59
2022/12/29 00:46:01;;;;;;;1.58;0.77;;;9.80;99.90;;;;;;7289503;32;20153;-59
2022/12/29 00:50:03;;;;;;;0.75;0.50;;;9.80;99.90;;;;;;7289145;32;20229;-59
2022/12/29 00:54:05;;;;;;;1.12;0.60;;;9.80;99.90;;;;;;7292357;32;20229;-59
2022/12/29 00:58:07;;;;;;;1.35;0.62;;;9.80;99.90;;;;;;7295951;32;20743;-60
2022/12/29 01:02:11;;;;;;;0.90;0.50;;;9.90;99.90;;;;;;7289487;32;20128;-60
2022/12/29 01:06:14;;;;;;;0.68;0.40;;;9.90;99.90;;;;;;7289130;32;20130;-59
2022/12/29 01:10:15;;;;;;;1.90;0.40;;;10.00;99.90;;;;;;7292472;32;20262;-59
2022/12/29 01:14:19;;;;;;;1.12;0.40;;;10.00;99.90;;;;;;7297356;32;20146;-60
2022/12/29 01:18:22;;;;;;;0.70;0.40;;;10.10;99.90;;;;;;7290836;32;20241;-59
2022/12/29 01:22:24;;;;;;;0.65;0.20;;;10.10;99.90;;;;;;7293618;32;20234;-60
2022/12/29 01:26:26;;;;;;;1.45;0.30;;;10.20;99.90;;;;;;7292326;32;20218;-61
2022/12/29 01:30:27;;;;;;;0.90;0.20;;;10.30;99.90;;;;;;7290347;32;20126;-59
2022/12/29 01:34:29;;;;;;;0.75;0.20;;;10.30;99.90;;;;;;7291037;32;20175;-61
2022/12/29 01:38:31;;;;;;;0.35;0.20;;;10.30;99.90;;;;;;7294612;32;20253;-59
2022/12/29 01:42:34;;;;;;;0.32;0.13;;;10.40;99.90;;;;;;7293204;32;20494;-59
2022/12/29 01:46:44;;;;;;;0.22;0.13;;;10.50;99.90;;;;;;7287902;32;20179;-60
2022/12/29 01:50:51;;;;;;;0.98;0.25;;;10.60;99.90;;;;;;7283872;32;20108;-60
2022/12/29 01:54:55;;;;;;;0.60;0.28;;;10.70;99.90;;;;;;7291003;32;20167;-60
2022/12/29 01:59:04;;;;;;;1.35;0.30;;;10.80;99.90;;;;;;7294763;32;20147;-60
2022/12/29 02:03:08;;;;;;;0.28;0.20;;;10.90;99.90;;;;;;7289401;32;20111;-60
2022/12/29 02:07:19;;;;;;;0.82;0.40;;;11.00;99.90;;;;;;7294935;32;20116;-60
2022/12/29 02:11:23;;;;;;;1.05;0.25;;;11.00;99.90;;;;;;7295932;32;20443;-59
2022/12/29 02:15:55;;;;;;;0.43;0.25;;;11.00;99.90;;;;;;7289407;32;20195;-60
2022/12/29 02:19:56;;;;;;;1.67;0.40;;;11.00;99.90;;;;;;7291272;32;20177;-60
2022/12/29 02:24:36;;;;;;;0.43;0.28;;;11.10;99.90;;;;;;7294254;32;20164;-60
2022/12/29 02:28:56;;;;;;;2.42;0.43;;;11.20;99.90;;;;;;7292959;32;20147;-59
2022/12/29 02:33:13;;;;;;;1.05;0.40;;;11.20;99.90;;;;;;7284905;32;20215;-60
2022/12/29 02:37:36;;;;;;;0.40;0.20;;;11.20;99.90;;;;;;7290590;32;20111;-61
2022/12/29 02:41:55;;;;;;;0.70;0.28;;;11.20;99.90;;;;;;7293385;32;20127;-59
2022/12/29 02:46:21;;;;;;;2.62;0.50;;;11.30;99.90;;;;;;7291921;32;20146;-60
2022/12/29 02:50:31;;;;;;;1.87;0.40;;;11.30;99.90;;;;;;7287287;32;20100;-62
2022/12/29 02:54:42;;;;;;;1.50;0.30;;;11.30;99.90;;;;;;7294552;32;20583;-60
2022/12/29 02:58:43;;;;;;;0.88;0.35;;;11.30;99.90;;;;;;7276704;32;20332;-60
2022/12/29 03:02:54;;;;;;;1.48;0.40;;;11.30;99.90;;;;;;7292113;32;20130;-61
2022/12/29 03:07:20;;;;;;;2.55;0.57;;;11.30;99.90;;;;;;7292319;32;20119;-60
2022/12/29 03:16:11;;;;;;;1.02;0.20;;;11.40;99.90;;;;;;7289084;32;20126;-60
2022/12/29 03:20:20;;;;;;;1.70;0.55;;;11.40;99.90;;;;;;7291390;32;20879;-62
2022/12/29 03:24:32;;;;;;;1.20;0.37;;;11.50;99.90;;;;;;7288429;32;20100;-60
2022/12/29 03:28:40;;;;;;;2.45;0.30;;;11.50;99.90;;;;;;7292137;32;20228;-61
2022/12/29 03:32:50;;;;;;;1.27;0.37;;;11.50;99.90;;;;;;7291423;32;20270;-60
2022/12/29 03:37:11;;;;;;;0.85;0.40;;;11.50;99.90;;;;;;7283905;32;20104;-58
2022/12/29 03:41:18;;;;;;;1.10;0.20;;;11.40;99.90;;;;;;7288109;32;20297;-59
2022/12/29 03:45:20;;;;;;;1.85;0.47;;;11.30;99.90;;;;;;7285188;32;21564;-59
2022/12/29 03:49:22;;;;;;;2.15;0.30;;;11.30;99.90;;;;;;7288246;32;20204;-59
2022/12/29 03:53:23;;;;;;;3.35;0.45;;;11.40;99.90;;;;;;7283621;32;20195;-59
2022/12/29 03:57:25;;;;;;;1.60;0.30;;;11.50;99.90;;;;;;7291015;32;20135;-60
2022/12/29 04:01:27;;;;;;;1.20;0.30;;;11.50;99.90;;;;;;7285200;32;20498;-59
2022/12/29 04:05:29;;;;;;;0.50;0.30;;;11.50;99.90;;;;;;7287040;32;20611;-59
2022/12/29 04:09:31;;;;;;;1.12;0.20;;;11.60;99.90;;;;;;7291834;32;20426;-59
2022/12/29 04:13:32;;;;;;;1.20;0.40;;;11.60;99.90;;;;;;7286019;32;20150;-59
2022/12/29 04:17:34;;;;;;;0.57;0.30;;;11.60;99.90;;;;;;7291576;32;20211;-62
2022/12/29 04:21:36;;;;;;;1.12;0.30;;;11.50;99.90;;;;;;7288882;32;20137;-61
2022/12/29 04:25:37;;;;;;;1.35;0.40;;;11.50;99.90;;;;;;7292906;32;20204;-60
2022/12/29 04:29:39;;;;;;;1.33;0.25;;;11.70;99.90;;;;;;7293504;32;20588;-60
2022/12/29 04:33:41;;;;;;;1.23;0.30;;;11.70;99.90;;;;;;7293407;32;20104;-60
2022/12/29 04:37:42;;;;;;;1.12;0.35;;;11.80;99.90;;;;;;7289271;32;20213;-60
2022/12/29 04:41:44;;;;;;;2.47;0.30;;;11.80;99.90;;;;;;7291241;32;20108;-60
2022/12/29 04:45:46;;;;;;;2.62;0.28;;;11.70;99.90;;;;;;7292818;32;20099;-60
2022/12/29 04:49:49;;;;;;;1.27;0.50;;;11.70;99.90;;;;;;7300788;32;20183;-60
2022/12/29 04:53:50;;;;;;;3.00;0.43;;;11.80;99.90;;;;;;7297034;32;20175;-60
2022/12/29 04:57:52;;;;;;;0.85;0.37;;;11.70;99.90;;;;;;7290013;32;20434;-61
2022/12/29 05:01:54;;;;;;;2.87;0.40;;;11.80;99.90;;;;;;7292695;32;20258;-61
2022/12/29 05:05:56;;;;;;;2.83;0.40;;;11.80;99.90;;;;;;7297695;32;20189;-60
2022/12/29 05:09:58;;;;;;;4.00;0.50;;;11.80;99.90;;;;;;7298421;32;20373;-61
2022/12/29 05:14:00;;;;;;;1.42;0.50;;;11.80;99.90;;;;;;7283470;32;20265;-60
2022/12/29 05:18:01;;;;;;;1.27;0.30;;;11.80;99.90;;;;;;7292211;32;20222;-60
2022/12/29 05:22:03;;;;;;;0.73;0.30;;;11.80;99.90;;;;;;7296416;32;20272;-61
2022/12/29 05:26:05;;;;;;;2.42;0.57;;;11.70;99.90;;;;;;7292404;32;20108;-60
2022/12/29 05:30:08;;;;;;;2.25;0.30;;;11.80;99.90;;;;;;7296232;32;20226;-60
2022/12/29 05:34:11;;;;;;;2.37;0.45;;;11.70;99.90;;;;;;7295276;32;20167;-60
2022/12/29 05:38:13;;;;;;;1.67;0.35;;;11.70;99.90;;;;;;7295299;32;20135;-60
2022/12/29 05:42:15;;;;;;;3.62;0.57;;;11.70;99.90;;;;;;7300195;32;20187;-60
2022/12/29 05:46:17;;;;;;;1.33;0.40;;;11.60;99.90;;;;;;7294683;32;20108;-60
2022/12/29 05:50:19;;;;;;;0.77;0.50;;;11.60;99.90;;;;;;7293453;32;20138;-60
2022/12/29 05:54:21;;;;;;;2.40;0.32;;;11.60;99.90;;;;;;7290953;32;20108;-60
2022/12/29 05:58:23;;;;;;;2.25;0.40;;;11.60;99.90;;;;;;7293318;32;20228;-62
2022/12/29 06:02:24;;;;;;;2.22;0.50;;;11.60;99.90;;;;;;7290410;32;20235;-60
2022/12/29 06:06:26;;;;;;;1.77;0.50;;;11.60;99.90;;;;;;7295363;32;20133;-60
2022/12/29 06:10:28;;;;;;;4.15;0.75;;;11.70;99.90;;;;;;7291689;32;20150;-60
2022/12/29 06:14:30;;;;;;;8.27;0.70;;;11.70;99.90;;;;;;7296935;32;20257;-60
2022/12/29 06:18:31;;;;;;;1.45;0.40;;;11.60;99.90;;;;;;7296741;32;20222;-60
2022/12/29 06:22:33;;;;;;;3.25;0.50;;;11.60;99.90;;;;;;7296341;32;20718;-61
2022/12/29 06:26:35;;;;;;;3.50;0.60;;;11.50;99.90;;;;;;7298517;32;20674;-60
2022/12/29 06:30:36;;;;;;;2.00;0.40;;;11.40;99.90;;;;;;7290056;32;20144;-60
2022/12/29 06:34:38;;;;;;;5.82;0.70;;;11.40;99.90;;;;;;7295777;32;20250;-60
2022/12/29 06:38:40;;;;;;;2.80;0.60;;;11.30;99.90;;;;;;7296883;32;20107;-60
2022/12/29 06:42:41;;;;;;;2.20;0.45;;;11.30;99.90;;;;;;7278314;32;20131;-60
2022/12/29 06:46:43;;;;;;;2.33;0.52;;;11.30;99.90;;;;;;7294317;32;20134;-61
2022/12/29 06:50:44;;;;;;;4.62;0.68;;;11.30;99.90;;;;;;7288704;32;20678;-60
2022/12/29 06:54:46;;;;;;;3.12;0.50;;;11.30;99.90;;;;;;7291010;32;20600;-60
2022/12/29 06:58:48;;;;;;;4.20;0.65;;;11.30;99.90;;;;;;7293781;32;20112;-60
2022/12/29 07:02:50;;;;;;;3.12;0.50;;;11.30;99.90;;;;;;7291285;32;20122;-61
2022/12/29 07:06:51;;;;;;;2.17;0.30;;;11.40;99.90;;;;;;7281414;32;20112;-61
2022/12/29 07:10:53;;;;;;;4.80;0.50;;;11.30;99.90;;;;;;7294574;32;20130;-62
2022/12/29 07:14:55;;;;;;;3.15;0.43;;;11.30;99.90;;;;;;7292099;32;20207;-60
2022/12/29 07:18:58;;;;;;;3.90;0.70;;;11.30;99.90;;;;;;7292177;32;20129;-61
2022/12/29 07:23:00;;;;;;;2.80;0.57;;;11.20;99.90;;;;;;7282164;32;20139;-60
2022/12/29 07:27:02;;;;;;;7.07;0.65;;;11.10;99.90;;;;;;7286586;32;20202;-60
2022/12/29 07:31:05;;;;;;;5.55;0.50;;;11.00;99.90;;;;;;7287260;32;20139;-61
2022/12/29 07:35:07;;;;;;;6.68;0.70;;;11.00;99.90;;;;;;7289602;32;20777;-60
2022/12/29 07:39:09;;;;;;;5.78;0.70;;;11.00;99.90;;;;;;7291149;32;20233;-62
2022/12/29 07:43:10;;;;;;;5.55;0.65;;;11.10;99.90;;;;;;7294029;32;20162;-63
2022/12/29 07:47:12;;;;;;;5.70;0.77;;;11.10;99.90;;;;;;7288388;32;20171;-63
2022/12/29 07:51:14;;;;;;;3.87;0.68;;;11.10;99.90;;;;;;7281616;32;20139;-63
2022/12/29 07:55:16;;;;;;;3.30;0.60;;;11.10;99.90;;;;;;7284273;32;20722;-63
2022/12/29 07:59:18;;;;;;;2.87;0.60;;;11.10;99.90;;;;;;7291320;32;20111;-65
2022/12/29 08:03:19;;;;;;;6.55;0.52;;;11.10;99.90;;;;;;7283877;32;20782;-65
2022/12/29 08:07:21;;;;;;;2.53;0.65;;;11.10;99.90;;;;;;7294401;32;20103;-64
2022/12/29 08:11:23;;;;;;;7.65;0.62;;;11.10;99.90;;;;;;7295106;32;20142;-64
2022/12/29 08:15:25;;;;;;;2.05;0.60;;;11.10;99.90;;;;;;7290772;32;20230;-65
2022/12/29 08:19:33;;;;;;;5.85;1.08;;;11.00;99.90;;;;;;7292326;32;20140;-64
2022/12/29 08:23:34;;;;;;;5.50;0.85;;;10.90;99.90;;;;;;7287852;32;20246;-65
2022/12/29 08:27:36;;;;;;;9.82;1.15;;;11.00;99.90;;;;;;7285867;32;20108;-62
2022/12/29 08:31:38;;;;;;;4.47;1.25;;;11.00;99.90;;;;;;7289266;32;20153;-62
2022/12/29 08:35:39;;;;;;;3.00;0.65;;;11.00;99.90;;;;;;7287814;32;20127;-62
2022/12/29 08:39:41;;;;;;;5.25;0.88;;;11.00;99.90;;;;;;7295923;32;20108;-62
2022/12/29 08:43:46;;;;;;;6.15;1.30;;;11.00;99.90;;;;;;7286697;32;20437;-64
2022/12/29 08:47:48;;;;;;;11.02;0.95;;;11.00;99.90;;;;;;7285540;32;20202;-64
2022/12/29 08:51:50;;;;;;;5.75;0.93;;;10.70;99.90;;;;;;7290155;32;20132;-64
2022/12/29 08:55:58;;;;;;;7.25;1.17;;;10.60;99.90;;;;;;7293488;32;20159;-63
2022/12/29 09:00:07;;;;;;;7.22;0.85;;;10.60;99.90;;;;;;7290717;32;20107;-64
2022/12/29 09:04:08;;;;;;;12.18;2.70;;;10.70;99.90;;;;;;7288889;32;20473;-64
2022/12/29 09:08:18;;;;;;;5.57;1.12;;;10.60;99.90;;;;;;7287996;32;20505;-65
2022/12/29 09:12:27;;;;;;;4.93;0.70;;;10.60;99.90;;;;;;7289481;32;20150;-63
2022/12/29 09:16:37;;;;;;;8.43;1.20;;;10.60;99.90;;;;;;7286551;32;20465;-63
2022/12/29 09:20:39;;;;;;;4.65;0.80;;;10.60;99.90;;;;;;7289213;32;20583;-63
2022/12/29 09:24:40;;;;;;;4.87;0.90;;;10.70;99.90;;;;;;7288579;32;20174;-61
2022/12/29 09:28:44;;;;;;;2.95;0.90;;;10.80;99.90;;;;;;7292260;32;20499;-61
2022/12/29 09:32:46;;;;;;;5.68;0.82;;;10.80;99.90;;;;;;7294345;32;20296;-61
2022/12/29 09:36:56;;;;;;;4.75;0.95;;;10.90;99.90;;;;;;7289038;32;20783;-61
2022/12/29 09:41:13;;;;;;;5.50;0.73;;;10.90;99.90;;;;;;7296942;32;20192;-61
2022/12/29 09:45:22;;;;;;;7.60;0.90;;;10.90;99.90;;;;;;7289138;32;20211;-61
2022/12/29 09:49:40;;;;;;;4.00;0.90;;;10.90;99.90;;;;;;7292571;32;20173;-61
2022/12/29 09:53:49;;;;;;;5.90;0.98;;;11.00;99.90;;;;;;7288524;32;20671;-61
2022/12/29 09:58:10;;;;;;;4.35;0.80;;;11.00;99.90;;;;;;7287743;32;20352;-61
2022/12/29 10:02:35;;;;;;;6.15;1.02;;;11.00;99.90;;;;;;7286208;32;20230;-61
2022/12/29 10:07:02;;;;;;;5.60;0.70;;;11.10;99.90;;;;;;7279387;32;20120;-60
2022/12/29 10:11:45;;;;;;;10.90;1.10;;;11.10;99.90;;;;;;7291704;32;20205;-61
2022/12/29 10:16:08;;;;;;;6.35;1.08;;;11.10;99.90;;;;;;7284313;32;20326;-61
2022/12/29 10:20:30;;;;;;;8.05;1.40;;;11.10;99.90;;;;;;7291960;32;20139;-60
2022/12/29 10:24:37;;;;;;;6.60;0.90;;;11.20;99.90;;;;;;7295011;32;20218;-60
2022/12/29 10:28:56;;;;;;;6.80;1.17;;;11.50;99.90;;;;;;7295644;32;20103;-60
2022/12/29 10:33:02;;;;;;;3.72;0.80;;;11.40;99.90;;;;;;7291284;32;20549;-61
2022/12/29 10:37:38;;;;;;;8.13;1.10;;;11.40;99.90;;;;;;7292151;32;20162;-61
2022/12/29 10:41:48;;;;;;;9.82;1.05;;;11.50;99.90;;;;;;7258373;32;20186;-60
2022/12/29 10:45:52;;;;;;;6.90;0.95;;;11.50;99.90;;;;;;7290304;32;20179;-61
2022/12/29 10:49:55;;;;;;;4.90;0.80;;;11.60;99.90;;;;;;7291663;32;20522;-60
2022/12/29 10:54:06;;;;;;;7.32;1.00;;;11.50;99.90;;;;;;7296819;32;20215;-60
2022/12/29 10:58:13;;;;;;;10.02;1.00;;;11.50;99.90;;;;;;7292948;32;20183;-61
2022/12/29 11:02:49;;;;;;;4.75;0.95;;;11.50;99.90;;;;;;7291458;32;20548;-60
2022/12/29 11:06:51;;;;;;;7.97;0.85;;;11.40;99.90;;;;;;7292455;32;20108;-61
2022/12/29 11:11:02;;;;;;;7.18;1.25;;;11.40;99.90;;;;;;7289069;32;20130;-61
2022/12/29 11:15:07;;;;;;;6.95;0.80;;;11.40;99.90;;;;;;7290200;32;20108;-60
2022/12/29 11:19:21;;;;;;;6.40;0.90;;;11.60;99.90;;;;;;7296437;32;20623;-61
2022/12/29 11:23:31;;;;;;;6.72;1.00;;;11.80;99.90;;;;;;7288818;32;20187;-62
2022/12/29 11:27:33;;;;;;;6.68;1.05;;;11.60;99.90;;;;;;7285400;32;20178;-60
2022/12/29 11:31:45;;;;;;;4.25;0.85;;;11.50;99.90;;;;;;7290736;32;20166;-61
2022/12/29 11:35:47;;;;;;;9.68;1.20;;;11.30;99.90;;;;;;7284741;32;20596;-63
2022/12/29 11:40:05;;;;;;;6.45;1.17;;;11.20;99.90;;;;;;7284492;32;20238;-63
2022/12/29 11:44:12;;;;;;;7.32;1.17;;;11.20;99.90;;;;;;7284496;32;20697;-63
2022/12/29 11:48:18;;;;;;;3.50;0.80;;;11.20;99.90;;;;;;7285328;32;20108;-60
2022/12/29 11:52:25;;;;;;;5.80;1.00;;;11.20;99.90;;;;;;7288705;32;20150;-62
2022/12/29 11:56:36;;;;;;;6.90;0.90;;;11.20;99.90;;;;;;7293086;32;20123;-60
2022/12/29 12:00:44;;;;;;;7.97;1.00;;;11.20;99.90;;;;;;7277128;32;20130;-60
2022/12/29 12:04:46;;;;;;;7.65;1.05;;;11.20;99.90;;;;;;7287387;32;21002;-61
2022/12/29 12:08:56;;;;;;;9.50;1.17;;;11.10;99.90;;;;;;7286239;32;20136;-63
2022/12/29 12:13:14;;;;;;;6.43;1.05;;;11.10;99.90;;;;;;7290173;32;20140;-64
2022/12/29 12:17:24;;;;;;;9.32;1.00;;;11.10;99.90;;;;;;7284466;32;20108;-61
2022/12/29 12:21:39;;;;;;;8.13;1.40;;;11.10;99.90;;;;;;7287922;32;20766;-60
2022/12/29 12:26:04;;;;;;;9.75;1.42;;;11.10;99.90;;;;;;7293119;32;20651;-61
2022/12/29 12:30:12;;;;;;;6.53;1.10;;;11.10;99.90;;;;;;7296247;32;20450;-61
2022/12/29 12:34:23;;;;;;;6.05;1.02;;;11.00;99.90;;;;;;7278416;32;20175;-61
2022/12/29 12:38:53;;;;;;;11.25;1.65;;;11.00;99.90;;;;;;7280259;32;20116;-62
2022/12/29 12:43:19;;;;;;;11.98;1.23;;;11.10;99.90;;;;;;7276294;32;20162;-61
2022/12/29 12:48:03;;;;;;;4.72;1.12;;;11.10;99.90;;;;;;7286099;32;20491;-61
2022/12/29 12:52:29;;;;;;;8.93;0.95;;;11.00;99.90;;;;;;7283702;32;20162;-61
2022/12/29 12:56:46;;;;;;;4.72;1.40;;;11.00;99.90;;;;;;7294260;32;20138;-62
2022/12/29 13:01:08;;;;;;;6.60;0.88;;;11.00;99.90;;;;;;7288987;32;20222;-61
2022/12/29 13:05:21;;;;;;;7.87;1.10;;;11.00;99.90;;;;;;7286143;32;20481;-62
2022/12/29 13:09:51;;;;;;;5.85;0.80;;;11.00;99.90;;;;;;7291662;32;20516;-61
2022/12/29 13:13:58;;;;;;;8.23;0.80;;;11.00;99.90;;;;;;7298946;32;20183;-62
2022/12/29 13:18:34;;;;;;;5.32;1.12;;;10.90;99.90;;;;;;7299400;32;20591;-62
2022/12/29 13:22:54;;;;;;;5.28;0.90;;;10.90;99.90;;;;;;7293843;32;20262;-62
2022/12/29 13:27:44;;;;;;;6.28;1.20;;;10.70;99.90;;;;;;7292854;32;20250;-62
2022/12/29 13:32:02;;;;;;;5.78;1.00;;;10.70;99.90;;;;;;7254781;32;20434;-61
2022/12/29 13:36:29;;;;;;;9.50;1.00;;;10.80;99.90;;;;;;7290593;32;20104;-62
2022/12/29 13:40:35;;;;;;;5.37;1.17;;;10.80;99.90;;;;;;7293892;32;20150;-61
2022/12/29 13:44:45;;;;;;;4.25;0.80;;;10.80;99.90;;;;;;7287454;32;20640;-61
2022/12/29 13:48:55;;;;;;;7.25;0.90;;;10.90;99.90;;;;;;7277219;32;20567;-59
2022/12/29 13:53:14;;;;;;;7.45;1.23;;;11.00;99.90;;;;;;7288146;32;20273;-60
2022/12/29 13:57:48;;;;;;;6.35;1.00;;;11.10;99.90;;;;;;7293353;32;20193;-60
2022/12/29 14:02:01;;;;;;;7.03;1.05;;;11.00;99.90;;;;;;7288346;32;20580;-59
2022/12/29 14:06:25;;;;;;;7.25;1.15;;;11.00;99.90;;;;;;7290935;32;20343;-62
2022/12/29 14:10:35;;;;;;;5.70;1.25;;;10.90;99.90;;;;;;7296859;32;20199;-61
2022/12/29 14:14:37;;;;;;;6.78;0.80;;;10.90;99.90;;;;;;7298115;32;20226;-61
2022/12/29 14:18:44;;;;;;;7.75;1.20;;;10.90;99.90;;;;;;7286883;32;20226;-61
2022/12/29 14:23:08;;;;;;;6.62;1.15;;;11.00;99.90;;;;;;7293663;32;20215;-61
2022/12/29 14:27:10;;;;;;;5.07;0.80;;;10.90;99.90;;;;;;7292955;32;20207;-60
2022/12/29 14:31:15;;;;;;;4.22;1.10;;;10.90;99.90;;;;;;7294235;32;20150;-60
2022/12/29 14:35:39;;;;;;;4.35;1.17;;;10.80;99.90;;;;;;7290238;32;20195;-60
2022/12/29 14:39:44;;;;;;;8.20;1.02;;;10.80;99.90;;;;;;7294659;32;20161;-61
2022/12/29 14:44:17;;;;;;;8.23;1.17;;;10.80;99.90;;;;;;7265916;32;20135;-60
2022/12/29 14:48:37;;;;;;;8.07;1.08;;;10.80;99.90;;;;;;7291249;32;20163;-60
2022/12/29 14:52:58;;;;;;;6.85;0.80;;;10.80;99.90;;;;;;7291254;32;20662;-60
2022/12/29 14:57:08;;;;;;;7.62;1.00;;;10.70;99.90;;;;;;7294308;32;20096;-60
2022/12/29 15:01:43;;;;;;;8.73;1.10;;;10.60;99.90;;;;;;7291306;32;20626;-60
2022/12/29 15:05:51;;;;;;;4.40;1.12;;;10.60;99.90;;;;;;7283447;32;20731;-60
2022/12/29 15:10:04;;;;;;;8.35;1.17;;;10.60;99.90;;;;;;7263054;32;20145;-60
2022/12/29 15:14:35;;;;;;;8.57;1.20;;;10.60;99.90;;;;;;7295596;32;20137;-60
2022/12/29 15:18:42;;;;;;;6.62;1.17;;;10.50;99.90;;;;;;7275558;32;20207;-60
2022/12/29 15:23:04;;;;;;;6.37;1.10;;;10.40;99.90;;;;;;7293999;32;20096;-61
2022/12/29 15:27:05;;;;;;;4.62;1.02;;;10.40;99.90;;;;;;7291047;32;20171;-60
2022/12/29 15:31:16;;;;;;;8.15;1.37;;;10.40;99.90;;;;;;7290921;32;20131;-61
2022/12/29 15:35:37;;;;;;;6.68;1.00;;;10.40;99.90;;;;;;7288237;32;20157;-59
2022/12/29 15:39:40;;;;;;;4.50;0.80;;;10.30;99.90;;;;;;7286803;32;20116;-58
2022/12/29 15:43:45;;;;;;;7.10;1.10;;;10.50;99.90;;;;;;7288201;32;20245;-59
2022/12/29 15:47:50;;;;;;;7.47;1.48;;;10.60;99.90;;;;;;7288245;32;20100;-63
2022/12/29 15:51:51;;;;;;;9.10;1.35;;;10.40;99.90;;;;;;7293064;32;20139;-63
2022/12/29 15:55:56;;;;;;;7.22;0.95;;;10.40;99.90;;;;;;7281391;32;20140;-64
2022/12/29 16:00:21;;;;;;;6.97;1.02;;;10.20;99.90;;;;;;7292505;32;20128;-63
2022/12/29 16:04:25;;;;;;;8.93;1.30;;;10.10;99.90;;;;;;7292030;32;20158;-61
2022/12/29 16:08:39;;;;;;;7.60;1.02;;;10.10;99.90;;;;;;7294282;32;20926;-63
2022/12/29 16:12:41;;;;;;;7.20;1.35;;;10.10;99.90;;;;;;7293156;32;20139;-62
2022/12/29 16:16:45;;;;;;;5.65;1.60;;;10.10;99.90;;;;;;7286402;32;20131;-61
2022/12/29 16:20:47;;;;;;;5.97;0.80;;;10.10;99.90;;;;;;7287040;32;20214;-62
2022/12/29 16:24:49;;;;;;;7.18;0.90;;;10.00;99.90;;;;;;7277642;32;20215;-62
2022/12/29 16:28:56;;;;;;;6.03;1.00;;;10.00;99.90;;;;;;7294682;32;20165;-62
2022/12/29 16:33:00;;;;;;;7.28;1.50;;;10.00;99.90;;;;;;7292512;32;20229;-65
2022/12/29 16:37:03;;;;;;;6.75;1.55;;;9.90;99.90;;;;;;7291628;32;20298;-65
2022/12/29 16:41:05;;;;;;;7.80;1.67;;;9.90;99.90;;;;;;7295160;32;20130;-63
2022/12/29 16:45:48;;;;;;;8.32;1.27;;;9.90;99.90;;;;;;7274015;32;20187;-60
2022/12/29 16:49:52;;;;;;;8.90;1.20;;;9.90;99.90;;;;;;7276606;32;20173;-62
2022/12/29 16:53:55;;;;;;;7.22;1.37;;;9.90;99.90;;;;;;7291559;32;20301;-61
2022/12/29 16:57:59;;;;;;;8.57;1.50;;;9.90;99.90;;;;;;7297688;32;20134;-62
2022/12/29 17:02:07;;;;;;;10.00;3.15;;;9.90;99.90;;;;;;7291084;32;20111;-62
2022/12/29 17:06:16;;;;;;;10.68;1.55;;;9.90;99.90;;;;;;7293857;32;20115;-62
2022/12/29 17:10:19;;;;;;;15.50;1.83;;;9.90;99.90;;;;;;7291178;32;20190;-62
2022/12/29 17:14:59;;;;;;;11.43;1.37;;;9.90;99.90;;;;;;7297252;32;20112;-63
2022/12/29 17:19:01;;;;;;;8.73;1.52;;;9.90;99.90;;;;;;7291880;32;20626;-62
2022/12/29 17:23:14;;;;;;;8.77;1.45;;;10.00;99.90;;;;;;7299748;32;20230;-62
2022/12/29 17:27:38;;;;;;;9.10;1.87;;;9.90;99.90;;;;;;7295057;32;20551;-62
2022/12/29 17:31:40;;;;;;;15.48;1.67;;;9.80;99.90;;;;;;7295244;32;20584;-63
2022/12/29 17:35:41;;;;;;;12.37;1.65;;;9.80;99.90;;;;;;7296851;32;20132;-63
2022/12/29 17:39:43;;;;;;;15.00;2.17;;;9.70;99.90;;;;;;7300344;32;20164;-63
2022/12/29 17:43:45;;;;;;;10.80;2.20;;;9.60;99.90;;;;;;7298567;32;20100;-62
2022/12/29 17:47:47;;;;;;;7.05;1.30;;;9.20;99.90;;;;;;7279303;32;20111;-61
2022/12/29 17:51:49;;;;;;;7.97;1.85;;;9.00;99.90;;;;;;7293285;32;20251;-61
2022/12/29 17:55:51;;;;;;;4.03;0.82;;;8.70;99.90;;;;;;7284486;32;20135;-61
2022/12/29 17:59:53;;;;;;;4.97;0.77;;;8.30;99.90;;;;;;7281936;32;20132;-63
2022/12/29 18:03:54;;;;;;;5.07;1.00;;;8.00;99.90;;;;;;7293098;32;20140;-62
2022/12/29 18:07:58;;;;;;;4.62;0.93;;;7.90;99.90;;;;;;7292948;32;20275;-62
2022/12/29 18:12:00;;;;;;;5.47;0.98;;;7.80;99.90;;;;;;7290655;32;20195;-61
2022/12/29 18:16:01;;;;;;;6.85;1.27;;;7.80;99.90;;;;;;7297152;32;20871;-62
2022/12/29 18:20:04;;;;;;;4.80;1.75;;;7.60;99.90;;;;;;7290822;32;20100;-62
2022/12/29 18:24:09;;;;;;;4.82;1.10;;;7.50;99.90;;;;;;7293128;32;20195;-62
2022/12/29 18:28:10;;;;;;;4.95;1.30;;;7.50;99.90;;;;;;7298082;32;20210;-62
2022/12/29 18:32:13;;;;;;;7.95;1.40;;;7.40;99.90;;;;;;7295560;32;20249;-62
2022/12/29 18:36:16;;;;;;;8.80;1.25;;;7.40;99.90;;;;;;7296966;32;20134;-62
2022/12/29 18:40:18;;;;;;;6.10;1.90;;;7.30;99.90;;;;;;7298068;32;20211;-62
2022/12/29 18:44:20;;;;;;;9.02;1.42;;;7.40;99.90;;;;;;7299651;32;20096;-62
2022/12/29 18:48:22;;;;;;;14.10;2.22;;;7.50;99.90;;;;;;7295391;32;20261;-63
2022/12/29 18:52:23;;;;;;;10.82;2.42;;;7.50;99.90;;;;;;7295347;32;20462;-62
2022/12/29 18:56:26;;;;;;;10.02;1.65;;;7.50;99.90;;;;;;7293015;32;20192;-62
2022/12/29 19:00:27;;;;;;;12.23;1.98;;;7.60;99.90;;;;;;7294653;32;20117;-62
2022/12/29 19:04:29;;;;;;;12.30;2.17;;;7.60;99.90;;;;;;7297071;32;20129;-62
2022/12/29 19:08:31;;;;;;;13.45;2.22;;;7.60;99.90;;;;;;7294308;32;20573;-62
2022/12/29 19:12:32;;;;;;;15.48;2.45;;;7.60;99.90;;;;;;7301544;32;20265;-62
2022/12/29 19:16:34;;;;;;;14.77;2.45;;;7.60;99.90;;;;;;7290632;32;20643;-62
2022/12/29 19:20:41;;;;;;;11.55;2.15;;;7.80;99.90;;;;;;7291723;32;20458;-61
2022/12/29 19:24:43;;;;;;;10.90;2.40;;;7.80;99.90;;;;;;7289416;32;20808;-62
2022/12/29 19:28:45;;;;;;;8.95;1.65;;;7.80;99.90;;;;;;7278074;32;20183;-62
2022/12/29 19:32:49;;;;;;;9.95;2.17;;;7.80;99.90;;;;;;7297135;32;20107;-61
2022/12/29 19:36:50;;;;;;;11.07;1.73;;;7.70;99.90;;;;;;7288617;32;20134;-58
2022/12/29 19:40:52;;;;;;;10.38;1.73;;;7.80;99.90;;;;;;7293175;32;20827;-59
2022/12/29 19:44:54;;;;;;;11.55;2.05;;;8.00;99.90;;;;;;7296566;32;20157;-58
2022/12/29 19:48:59;;;;;;;9.60;1.87;;;8.00;99.90;;;;;;7296204;32;20231;-60
2022/12/29 19:53:00;;;;;;;13.77;1.95;;;8.10;99.90;;;;;;7295870;32;20134;-61
2022/12/29 19:57:06;;;;;;;10.38;1.95;;;8.00;99.90;;;;;;7278057;32;20108;-63
2022/12/29 20:01:15;;;;;;;10.52;1.60;;;7.80;99.90;;;;;;7295303;32;20251;-62
2022/12/29 20:05:18;;;;;;;10.75;2.00;;;7.80;99.90;;;;;;7297917;32;20156;-61
2022/12/29 20:09:19;;;;;;;7.03;1.70;;;7.70;99.90;;;;;;7295458;32;20291;-63
2022/12/29 20:13:21;;;;;;;10.30;2.12;;;7.70;99.90;;;;;;7296699;32;20100;-60
2022/12/29 20:17:23;;;;;;;11.25;1.20;;;7.70;99.90;;;;;;7293194;32;20167;-59
2022/12/29 20:21:46;;;;;;;10.82;1.50;;;7.70;99.90;;;;;;7294601;32;20112;-60
2022/12/29 20:25:53;;;;;;;9.25;1.75;;;7.70;99.90;;;;;;7292509;32;20116;-61
2022/12/29 20:29:55;;;;;;;11.57;1.83;;;7.70;99.90;;;;;;7290544;32;20304;-60
2022/12/29 20:33:57;;;;;;;9.20;1.65;;;7.60;99.90;;;;;;7292655;32;20116;-61
2022/12/29 20:37:58;;;;;;;6.32;1.45;;;7.60;99.90;;;;;;7295313;32;20261;-61
2022/12/29 20:42:00;;;;;;;7.75;1.50;;;7.60;99.90;;;;;;7295533;32;20120;-61
2022/12/29 20:46:02;;;;;;;9.95;2.00;;;7.50;99.90;;;;;;7292192;32;20550;-59
2022/12/29 20:50:04;;;;;;;9.70;1.85;;;7.50;99.90;;;;;;7294180;32;20493;-61
2022/12/29 20:54:06;;;;;;;10.23;1.70;;;7.50;99.90;;;;;;7296542;32;20153;-60
2022/12/29 20:58:08;;;;;;;12.40;1.80;;;7.50;99.90;;;;;;7295235;32;20179;-61
2022/12/29 21:02:26;;;;;;;9.65;1.98;;;7.50;99.90;;;;;;7287122;32;20148;-62
2022/12/29 21:06:28;;;;;;;15.50;2.70;;;7.50;99.90;;;;;;7294248;32;20182;-61
2022/12/29 21:10:29;;;;;;;10.35;1.80;;;7.50;99.90;;;;;;7293562;32;20541;-61
2022/12/29 21:14:31;;;;;;;10.85;1.90;;;7.50;99.90;;;;;;7295702;32;20546;-61
2022/12/29 21:18:33;;;;;;;10.85;1.65;;;7.40;99.90;;;;;;7291295;32;20135;-60
2022/12/29 21:22:35;;;;;;;13.45;1.80;;;7.50;99.90;;;;;;7293223;32;20104;-61
2022/12/29 21:26:36;;;;;;;13.62;2.50;;;7.40;99.90;;;;;;7293160;32;20151;-62
2022/12/29 21:30:40;;;;;;;12.35;2.28;;;7.40;99.90;;;;;;7298258;32;20256;-62
2022/12/29 21:34:42;;;;;;;11.93;1.98;;;7.40;99.90;;;;;;7300683;32;20128;-61
2022/12/29 21:38:44;;;;;;;12.35;1.95;;;7.40;99.90;;;;;;7296447;32;20141;-62
2022/12/29 21:42:45;;;;;;;9.93;1.62;;;7.30;99.90;;;;;;7290099;32;20617;-60
2022/12/29 21:46:47;;;;;;;13.90;2.17;;;7.40;99.90;;;;;;7297114;32;20139;-60
2022/12/29 21:55:18;;;;;;;9.90;1.98;;;7.40;99.90;;;;;;7297619;32;20491;-62
2022/12/29 22:16:42;;;;;;;13.98;2.33;;;7.30;99.90;;;;;;7298414;32;20108;-62